• Join FlightAware (Why Join?)
  • Login
  • US Flag 
06:06AM EDT


 

Airport Tracker/Info


-or-


 

Live Flight TrackerFlight Track Log ✈ BAW228 ✈ 14-May-2013 ✈ KBWI - EGLL / LHR

Flight Track Log - Related Links

Times and Time Zones

All times are in EDT time to prevent confusion due to time zone crossing. See the BAW228 flight status page for this flight to view local times or setup timezone preferences in your user account.

Time Position Orientation Groundspeed Altitude Reporting Facility
EDT Latitude Longitude Course Direction KTS MPH feet Rate Location/Type
09:45PM 39.1510 -76.7600 193° South 201 231 3,100  Level FlightAware
09:46PM 39.1340 -76.7520 160° South 217 250 3,700 2,220 Climbing FlightAware
09:46PM 39.1260 -76.7330 118° Southeast 226 260 4,400 1,980 Climbing FlightAware
09:46PM 39.1290 -76.6940 84° East 244 281 5,200 1,260 Climbing FlightAware
09:47PM 39.1320 -76.6540 84° East 269 310 5,600 1,380 Climbing FlightAware
09:47PM 39.1340 -76.6020 87° East 292 336 6,500 1,860 Climbing FlightAware
09:48PM 39.1370 -76.5500 86° East 301 346 7,500 2,040 Climbing FlightAware
09:48PM 39.1390 -76.5090 86° East 305 351 8,400 2,640 Climbing FlightAware
09:49PM 39.1414 -76.4633 86° East 308 354 9,400 2,700 Climbing FlightAware ADS-B
09:49PM 39.1427 -76.4356 87° East 312 359 9,900 1,680 Climbing FlightAware ADS-B
09:49PM 39.1453 -76.3766 87° East 331 381 10,700 1,200 Climbing FlightAware ADS-B
09:50PM 39.1481 -76.3156 87° East 355 409 11,200 1,140 Climbing FlightAware ADS-B
09:50PM 39.1506 -76.2568 87° East 374 430 11,800 1,200 Climbing FlightAware ADS-B
09:51PM 39.1546 -76.2025 85° East 390 449 12,200 1,380 Climbing FlightAware ADS-B
09:51PM 39.1628 -76.1299 82° East 402 463 13,100 1,920 Climbing FlightAware ADS-B
09:52PM 39.1711 -76.0582 81° East 408 470 14,200 2,040 Climbing FlightAware ADS-B
09:52PM 39.1802 -75.9782 82° East 414 476 15,300 1,920 Climbing FlightAware ADS-B
09:53PM 39.1858 -75.9315 81° East 420 483 15,900 1,620 Climbing FlightAware ADS-B
09:53PM 39.1903 -75.9073 77° East 417 480 16,100 1,380 Climbing FlightAware ADS-B
09:53PM 39.1953 -75.8910 68° East 416 479 16,300 1,740 Climbing FlightAware ADS-B
09:53PM 39.2046 -75.8694 61° Northeast 411 473 16,600 1,560 Climbing FlightAware ADS-B
09:53PM 39.2145 -75.8514 55° Northeast 407 468 16,800 1,800 Climbing FlightAware ADS-B
09:54PM 39.2552 -75.7981 45° Northeast 406 467 17,800 1,860 Climbing FlightAware ADS-B
09:54PM 39.2959 -75.7465 44° Northeast 412 474 18,700 1,740 Climbing FlightAware ADS-B
09:55PM 39.3372 -75.6926 45° Northeast 417 480 19,600 1,920 Climbing FlightAware ADS-B
09:55PM 39.3797 -75.6398 44° Northeast 419 482 20,700 2,100 Climbing FlightAware ADS-B
09:56PM 39.4211 -75.5864 45° Northeast 421 484 21,700 2,100 Climbing FlightAware ADS-B
09:56PM 39.4644 -75.5291 46° Northeast 422 486 22,900 1,980 Climbing FlightAware ADS-B
09:57PM 39.5108 -75.4675 46° Northeast 426 490 23,900 1,740 Climbing FlightAware ADS-B
09:57PM 39.5535 -75.4124 45° Northeast 431 496 24,800 1,620 Climbing FlightAware ADS-B
09:58PM 39.5979 -75.3528 46° Northeast 439 505 25,600 1,560 Climbing FlightAware ADS-B
09:58PM 39.6416 -75.2961 45° Northeast 441 507 26,400 2,400 Climbing FlightAware ADS-B
09:59PM 39.6840 -75.2360 47° Northeast 427 491 28,100 2,460 Climbing FlightAware ADS-B
09:59PM 39.7238 -75.1774 49° Northeast 428 493 29,000 1,320 Climbing FlightAware ADS-B
10:00PM 39.7664 -75.1178 47° Northeast 438 504 29,500 1,380 Climbing FlightAware ADS-B
10:00PM 39.8150 -75.0479 48° Northeast 438 504 30,600 1,800 Climbing FlightAware ADS-B
10:01PM 39.8592 -74.9846 48° Northeast 432 497 31,600 1,560 Climbing FlightAware ADS-B
10:01PM 39.9011 -74.9252 47° Northeast 433 498 32,300 1,440 Climbing FlightAware ADS-B
10:02PM 39.9422 -74.8675 47° Northeast 431 496 33,100 1,560 Climbing FlightAware ADS-B
10:02PM 39.9824 -74.8102 48° Northeast 426 490 33,900 1,560 Climbing FlightAware ADS-B
10:03PM 40.0221 -74.7518 48° Northeast 421 484 34,700 1,260 Climbing FlightAware ADS-B
10:03PM 40.0491 -74.7143 47° Northeast 417 480 35,000 540 Climbing FlightAware ADS-B
10:04PM 40.0645 -74.6957 43° Northeast 410 472 35,000  Level FlightAware ADS-B
10:04PM 40.0747 -74.6819 46° Northeast 418 481 35,000  Level FlightAware ADS-B
10:04PM 40.1026 -74.6385 50° Northeast 420 483 35,000  Level FlightAware ADS-B
10:05PM 40.1424 -74.5819 47° Northeast 414 476 35,000  Level FlightAware ADS-B
10:05PM 40.1826 -74.5268 46° Northeast 418 481 35,000  Level FlightAware ADS-B
10:06PM 40.2222 -74.4684 48° Northeast 423 487 35,000  Level FlightAware ADS-B
10:06PM 40.2484 -74.4301 48° Northeast 424 488 35,000  Level FlightAware ADS-B
10:06PM 40.2631 -74.4090 48° Northeast 424 488 35,000  Level FlightAware ADS-B
10:07PM 40.3027 -74.3514 48° Northeast 425 489 35,000  Level FlightAware ADS-B
10:07PM 40.3424 -74.2937 48° Northeast 427 491 35,000  Level FlightAware ADS-B
10:08PM 40.3816 -74.2358 48° Northeast 426 490 35,000  Level FlightAware ADS-B
10:08PM 40.4239 -74.1723 49° Northeast 426 490 35,000  Level FlightAware ADS-B
10:09PM 40.4653 -74.1125 48° Northeast 426 490 35,000  Level FlightAware ADS-B
10:09PM 40.5075 -74.0505 48° Northeast 426 490 35,000  Level FlightAware ADS-B
10:10PM 40.5496 -73.9891 48° Northeast 423 487 35,000  Level FlightAware ADS-B
10:10PM 40.5884 -73.9322 48° Northeast 421 484 35,000  Level FlightAware ADS-B
10:11PM 40.6277 -73.8748 48° Northeast 421 484 35,000  Level FlightAware ADS-B
10:11PM 40.6667 -73.8154 49° Northeast 420 483 35,000  Level FlightAware ADS-B
10:12PM 40.7070 -73.7563 48° Northeast 420 483 35,000  Level FlightAware ADS-B
10:12PM 40.7494 -73.6929 49° Northeast 419 482 35,000  Level FlightAware ADS-B
10:13PM 40.7903 -73.6338 48° Northeast 419 482 35,000  Level FlightAware ADS-B
10:13PM 40.8327 -73.5705 48° Northeast 421 484 35,000  Level FlightAware ADS-B
10:14PM 40.8737 -73.5088 49° Northeast 421 484 35,000  Level FlightAware ADS-B
10:14PM 40.9143 -73.4470 49° Northeast 422 486 35,000  Level FlightAware ADS-B
10:15PM 40.9547 -73.3868 48° Northeast 424 488 35,000  Level FlightAware ADS-B
10:15PM 40.9951 -73.3261 49° Northeast 425 489 35,000  Level FlightAware ADS-B
10:16PM 41.0360 -73.2634 49° Northeast 425 489 35,000  Level FlightAware ADS-B
10:17PM 41.0757 -73.2023 49° Northeast 427 491 35,000  Level FlightAware ADS-B
10:17PM 41.1171 -73.1392 49° Northeast 429 494 35,000  Level FlightAware ADS-B
10:18PM 41.1583 -73.0777 48° Northeast 429 494 35,000  Level FlightAware ADS-B
10:18PM 41.1991 -73.0163 49° Northeast 430 495 35,000  Level FlightAware ADS-B
10:19PM 41.2386 -72.9570 48° Northeast 430 495 35,000  Level FlightAware ADS-B
10:19PM 41.2793 -72.8954 49° Northeast 432 497 35,000  Level FlightAware ADS-B
10:20PM 41.3274 -72.8239 48° Northeast 429 494 35,000  Level FlightAware ADS-B
10:20PM 41.3882 -72.7559 40° Northeast 421 484 35,000  Level FlightAware ADS-B
10:21PM 41.4355 -72.7033 40° Northeast 427 491 35,000  Level FlightAware ADS-B
10:22PM 41.4900 -72.6388 42° Northeast 428 493 35,000  Level FlightAware ADS-B
10:22PM 41.5440 -72.5750 41° Northeast 432 497 35,000  Level FlightAware
10:23PM 41.6040 -72.5040 41° Northeast 434 499 35,000  Level FlightAware
10:23PM 41.6620 -72.4340 42° Northeast 436 502 35,000  Level FlightAware
10:24PM 41.7300 -72.3530 42° Northeast 439 505 35,000  Level FlightAware
10:25PM 41.7900 -72.2820 41° Northeast 441 507 35,000  Level FlightAware
10:26PM 41.8550 -72.2030 42° Northeast 443 510 35,000  Level FlightAware
10:26PM 41.9200 -72.1260 41° Northeast 446 513 35,000  Level FlightAware
10:27PM 41.9820 -72.0500 42° Northeast 446 513 35,000  Level FlightAware
10:28PM 42.0530 -71.9660 41° Northeast 448 516 35,000  Level FlightAware
10:29PM 42.1360 -71.8660 42° Northeast 449 517 35,000  Level FlightAware
10:29PM 42.1980 -71.7920 41° Northeast 449 517 35,000  Level FlightAware
10:30PM 42.2690 -71.7070 42° Northeast 447 514 35,000  Level FlightAware
10:31PM 42.3330 -71.6310 41° Northeast 448 516 35,000  Level FlightAware
10:31PM 42.4020 -71.5490 41° Northeast 451 519 35,000  Level FlightAware
10:32PM 42.4650 -71.4740 41° Northeast 451 519 35,000  Level FlightAware
10:33PM 42.5370 -71.3880 41° Northeast 452 520 35,000  Level FlightAware
10:34PM 42.5980 -71.3140 42° Northeast 453 521 35,000  Level FlightAware
10:34PM 42.6620 -71.2360 42° Northeast 454 522 35,000  Level FlightAware
10:35PM 42.7300 -71.1510 43° Northeast 454 522 35,000  Level FlightAware
10:36PM 42.7930 -71.0750 42° Northeast 453 521 35,000  Level FlightAware
10:36PM 42.8640 -70.9870 42° Northeast 453 521 35,000  Level FlightAware
10:37PM 42.9270 -70.9100 42° Northeast 453 521 35,000  Level FlightAware
10:38PM 42.9880 -70.8330 43° Northeast 453 521 35,000  Level FlightAware
10:38PM 43.0560 -70.7480 42° Northeast 454 522 35,000  Level FlightAware
10:39PM 43.1180 -70.6730 41° Northeast 455 524 35,000  Level FlightAware
10:40PM 43.1810 -70.5930 43° Northeast 455 524 35,000  Level FlightAware
10:41PM 43.2490 -70.5060 43° Northeast 457 526 35,000  Level FlightAware
10:41PM 43.3130 -70.4260 42° Northeast 460 529 35,000  Level FlightAware
10:42PM 43.3850 -70.3370 42° Northeast 461 531 35,000  Level FlightAware
10:43PM 43.4490 -70.2550 43° Northeast 463 533 35,000  Level FlightAware
10:43PM 43.5110 -70.1750 43° Northeast 464 534 35,000  Level FlightAware
10:44PM 43.5820 -70.0870 42° Northeast 466 536 35,000  Level FlightAware
10:45PM 43.6440 -70.0060 43° Northeast 468 539 35,000  Level FlightAware
10:45PM 43.7070 -69.9260 43° Northeast 468 539 35,000  Level FlightAware
10:46PM 43.7800 -69.8310 43° Northeast 468 539 35,000  Level FlightAware
10:47PM 43.8440 -69.7470 43° Northeast 469 540 35,000  Level FlightAware
10:48PM 43.9130 -69.6570 43° Northeast 468 539 35,000  Level FlightAware
10:48PM 43.9760 -69.5750 43° Northeast 468 539 35,000  Level FlightAware
10:49PM 44.0400 -69.4930 43° Northeast 469 540 35,000  Level FlightAware
10:50PM 44.1100 -69.4020 43° Northeast 469 540 35,000  Level FlightAware
10:50PM 44.1730 -69.3190 43° Northeast 469 540 35,000  Level FlightAware
10:51PM 44.2380 -69.2340 43° Northeast 468 539 35,000  Level FlightAware
10:52PM 44.3100 -69.1390 43° Northeast 470 541 35,000  Level FlightAware
10:52PM 44.3720 -69.0570 43° Northeast 471 542 35,000  Level FlightAware
10:53PM 44.4440 -68.9600 44° Northeast 472 543 35,000  Level FlightAware
10:54PM 44.5040 -68.8790 44° Northeast 473 544 35,000  Level FlightAware
10:55PM 44.5760 -68.7840 43° Northeast 474 545 35,000  Level FlightAware
10:55PM 44.6420 -68.6940 44° Northeast 476 548 35,000  Level FlightAware
10:56PM 44.7030 -68.6130 43° Northeast 477 549 35,000  Level FlightAware
10:57PM 44.7760 -68.5140 44° Northeast 478 550 35,000  Level FlightAware
10:57PM 44.8400 -68.4280 44° Northeast 479 551 35,000  Level FlightAware
10:58PM 44.9040 -68.3410 44° Northeast 480 552 35,000  Level FlightAware
10:59PM 44.9750 -68.2450 44° Northeast 482 555 35,000  Level FlightAware
10:59PM 45.0400 -68.1560 44° Northeast 483 556 35,000  Level FlightAware
11:00PM 45.1140 -68.0540 44° Northeast 484 557 35,000  Level FlightAware
11:01PM 45.1780 -67.9680 43° Northeast 483 556 35,000  Level FlightAware
11:02PM 45.2480 -67.8710 44° Northeast 484 557 35,000  Level FlightAware
11:02PM 45.3150 -67.7770 45° Northeast 485 558 35,000  Level FlightAware
11:03PM 45.3810 -67.6960 41° Northeast 486 559 35,000  Level FlightAware
11:04PM 45.4630 -67.6060 38° Northeast 487 560 35,000  Level FlightAware
11:04PM 45.5330 -67.5290 38° Northeast 488 562 35,000  Level FlightAware
11:05PM 45.6570 -67.3890 38° Northeast 491 565 35,000  Level FlightAware
11:07PM 45.7830 -67.2480 38° Northeast 493 567 35,000  Level FlightAware
11:08PM 45.9080 -67.1060 38° Northeast 494 568 35,000  Level FlightAware
11:09PM 46.0270 -66.9720 38° Northeast 496 571 35,000  Level FlightAware
11:10PM 46.1140 -66.8710 39° Northeast 495 570 35,000  Level FlightAware
11:10PM 46.1740 -66.8030 38° Northeast 496 571 35,000  Level FlightAware
11:11PM 46.2620 -66.7020 38° Northeast 497 572 35,000  Level FlightAware
11:12PM 46.3210 -66.6360 38° Northeast 497 572 35,000  Level FlightAware
11:13PM 46.4210 -66.5200 39° Northeast 496 571 35,000  Level FlightAware
11:13PM 46.4980 -66.4320 38° Northeast 496 571 35,000  Level FlightAware
11:14PM 46.5590 -66.3630 38° Northeast 496 571 35,000  Level FlightAware
11:15PM 46.6210 -66.2930 38° Northeast 496 571 35,000  Level FlightAware
11:15PM 46.6820 -66.2230 38° Northeast 496 571 35,000  Level FlightAware
11:16PM 46.7440 -66.1530 38° Northeast 496 571 35,000  Level FlightAware
11:17PM 46.8210 -66.0650 38° Northeast 496 571 35,000  Level FlightAware
11:18PM 46.8820 -65.9950 38° Northeast 496 571 35,000  Level FlightAware
11:18PM 46.9430 -65.9240 38° Northeast 496 571 35,000  Level FlightAware
11:19PM 47.0050 -65.8540 38° Northeast 496 571 35,000  Level FlightAware
11:20PM 47.0660 -65.7840 38° Northeast 496 571 35,000  Level FlightAware
11:20PM 47.1430 -65.6950 38° Northeast 496 571 35,000  Level FlightAware
11:21PM 47.2050 -65.6250 37° Northeast 496 571 35,000  Level FlightAware
11:22PM 47.2660 -65.5540 38° Northeast 496 571 35,000  Level FlightAware
11:22PM 47.4500 -65.2667 38° Northeast 500 575 35,000  Level Gander Center
11:23PM 47.4833 -65.2333 34° Northeast 510 587 35,000  Level Gander Center
11:24PM 47.5833 -65.1000 42° Northeast 500 575 35,000  Level Gander Center
11:25PM 47.7000 -64.9500 41° Northeast 510 587 35,000  Level Gander Center
11:26PM 47.8000 -64.8333 38° Northeast 510 587 35,000  Level Gander Center
11:27PM 47.9167 -64.7000 37° Northeast 510 587 35,000  Level Gander Center
11:28PM 48.0333 -64.5500 41° Northeast 520 598 35,000  Level Gander Center
11:29PM 48.1333 -64.4167 42° Northeast 520 598 35,000  Level Gander Center
11:30PM 48.2333 -64.2667 45° Northeast 520 598 35,000  Level Gander Center
11:31PM 48.3667 -64.1167 37° Northeast 510 587 35,000  Level Gander Center
11:32PM 48.4667 -64.0000 38° Northeast 520 598 35,000  Level Gander Center
11:33PM 48.5667 -63.8500 45° Northeast 520 598 35,000  Level Gander Center
11:34PM 48.6833 -63.7167 37° Northeast 520 598 35,000  Level Gander Center
11:35PM 48.8000 -63.5667 40° Northeast 530 610 35,000  Level Gander Center
11:36PM 48.9167 -63.4167 40° Northeast 530 610 35,000  Level Gander Center
11:37PM 49.0167 -63.2667 45° Northeast 530 610 35,000  Level Gander Center
11:38PM 49.1333 -63.1167 40° Northeast 540 621 35,000  Level Gander Center
11:39PM 49.2500 -62.9667 40° Northeast 540 621 35,000  Level Gander Center
11:40PM 49.3667 -62.8000 43° Northeast 550 633 35,000  Level Gander Center
11:41PM 49.4833 -62.6500 40° Northeast 550 633 35,000  Level Gander Center
11:42PM 49.6000 -62.5000 40° Northeast 560 644 35,000  Level Gander Center
11:43PM 49.7167 -62.3500 40° Northeast 550 633 35,000  Level Gander Center
11:44PM 49.8167 -62.1833 47° Northeast 550 633 35,000  Level Gander Center
11:45PM 49.9333 -62.0167 43° Northeast 540 621 35,000  Level Gander Center
11:46PM 50.0500 -61.8833 36° Northeast 540 621 35,000  Level Gander Center
11:47PM 50.1500 -61.7000 50° Northeast 530 610 35,000  Level Gander Center
11:48PM 50.2667 -61.5500 39° Northeast 540 621 35,000  Level Gander Center
11:49PM 50.3667 -61.3833 47° Northeast 540 621 35,000  Level Gander Center
11:50PM 50.4833 -61.2333 39° Northeast 540 621 35,000  Level Gander Center
11:51PM 50.6000 -61.0667 42° Northeast 550 633 35,000  Level Gander Center
11:52PM 50.7167 -60.8833 45° Northeast 550 633 35,000  Level Gander Center
11:53PM 50.8333 -60.7333 39° Northeast 560 644 35,000  Level Gander Center
11:54PM 50.9333 -60.5667 46° Northeast 560 644 35,000  Level Gander Center
11:55PM 51.0667 -60.3833 41° Northeast 560 644 35,000  Level Gander Center
11:56PM 51.1667 -60.2500 40° Northeast 550 633 35,000  Level Gander Center
11:57PM 51.2833 -60.0500 47° Northeast 540 621 35,100 480 Climbing Gander Center
11:58PM 51.3667 -59.8667 54° Northeast 540 621 36,000 420 Climbing Gander Center
11:59PM 51.4833 -59.6667 47° Northeast 550 633 36,000  Level Gander Center
12:00AM 51.5833 -59.5000 46° Northeast 540 621 36,000  Level Gander Center
12:01AM 51.6667 -59.3167 54° Northeast 540 621 36,000  Level Gander Center
12:02AM 51.7667 -59.1167 51° Northeast 540 621 36,000  Level Gander Center
12:03AM 51.8667 -58.9500 46° Northeast 540 621 36,000  Level Gander Center
12:04AM 51.9833 -58.7500 47° Northeast 540 621 36,000  Level Gander Center
12:05AM 52.0667 -58.5833 51° Northeast 550 633 36,000  Level Gander Center
12:06AM 52.1667 -58.3833 51° Northeast 550 633 36,000  Level Gander Center
12:07AM 52.2667 -58.2000 48° Northeast 550 633 36,000  Level Gander Center
12:08AM 52.3667 -58.0000 51° Northeast 550 633 36,000  Level Gander Center
12:09AM 52.4667 -57.8167 48° Northeast 550 633 36,000  Level Gander Center
12:10AM 52.5667 -57.6167 51° Northeast 550 633 36,000  Level Gander Center
12:11AM 52.6667 -57.4167 50° Northeast 540 621 36,000  Level Gander Center
12:12AM 52.7667 -57.2500 45° Northeast 540 621 36,000  Level Gander Center
12:13AM 52.8500 -57.0500 55° Northeast 540 621 36,000  Level Gander Center
12:14AM 52.9500 -56.8667 48° Northeast 540 621 36,000  Level Gander Center
12:15AM 53.0333 -56.6667 55° Northeast 540 621 36,000  Level Gander Center
12:16AM 53.1333 -56.4667 50° Northeast 540 621 36,000  Level Gander Center
12:17AM 53.2333 -56.2833 48° Northeast 540 621 36,000  Level Gander Center
12:18AM 53.3333 -56.0667 52° Northeast 540 621 36,000  Level Gander Center
12:19AM 53.4333 -55.8667 50° Northeast 540 621 36,000  Level Gander Center
12:20AM 53.5167 -55.6833 53° Northeast 540 621 36,000  Level Gander Center
12:21AM 53.6167 -55.4667 52° Northeast 540 621 36,000  Level Gander Center
12:22AM 53.7000 -55.2667 55° Northeast 540 621 36,000  Level Gander Center
12:23AM 53.7833 -55.0500 57° Northeast 550 633 36,000  Level Gander Center
12:24AM 53.8833 -54.8667 67° East 540 621 36,000  Level Gander Center
12:24AM 53.8667 -54.9667 67° East 531 611 36,000  Level ETMS Enhanced Traffic Management System
12:25AM 53.9333 -54.6333 70° East 530 610 36,000  Level Gander Center
12:26AM 53.9833 -54.4000 70° East 530 610 36,000  Level Gander Center
12:27AM 54.0500 -54.2167 58° Northeast 530 610 36,000  Level Gander Center
12:28AM 54.1000 -53.9833 70° East 530 610 36,000  Level Gander Center
12:29AM 54.1500 -53.7333 71° East 530 610 36,000  Level Gander Center
12:30AM 54.2000 -53.5000 70° East 530 610 36,000  Level Gander Center
12:31AM 54.2833 -53.2333 62° Northeast 530 610 36,000  Level Gander Center
12:32AM 54.3167 -53.0500 73° East 540 621 36,000  Level Gander Center
12:33AM 54.3667 -52.8000 71° East 540 621 36,000  Level Gander Center
12:33AM 54.4333 -52.6000 60° Northeast 540 621 36,000  Level Gander Center
12:34AM 54.4833 -52.3500 71° East 540 621 36,000  Level Gander Center
12:35AM 54.5333 -52.1000 71° East 540 621 36,000  Level Gander Center
12:36AM 54.5333 -52.0833 90° East 540 621 36,000  Level Gander Center
12:37AM 54.6000 -51.8333 65° Northeast 540 621 36,000  Level Gander Center
12:37AM 54.6500 -51.6500 65° Northeast 540 621 36,000  Level Gander Center
12:38AM 54.6500 -51.5833 90° East 540 621 36,000  Level Gander Center
12:39AM 54.7167 -51.3667 62° Northeast 540 621 36,000  Level Gander Center
12:40AM 54.7667 -51.1167 71° East 540 621 36,000  Level Gander Center
12:40AM 54.8000 -50.9000 75° East 540 621 36,000  Level Gander Center
12:41AM 54.8500 -50.6667 70° East 540 621 36,000  Level Gander Center
12:42AM 54.8667 -50.6333 49° Northeast 540 621 36,000  Level Gander Center
12:43AM 54.9167 -50.3833 71° East 540 621 36,000  Level Gander Center
12:46AM 55.0091 -49.9627 67° East  Level FlightAware Approximate
12:47AM 55.0000 -50.0000 66° East 533 613 36,000  Level ETMS Enhanced Traffic Management System
12:53AM 55.5194 -47.8422 68° East 533 613 36,000  Level FlightAware Transoceanic
12:54AM 55.5747 -47.5990 68° East 533 613 36,000  Level FlightAware Transoceanic
12:55AM 55.6296 -47.3551 68° East 533 613 36,000  Level FlightAware Transoceanic
12:56AM 55.6839 -47.1105 69° East 533 613 36,000  Level FlightAware Transoceanic
12:57AM 55.7378 -46.8652 69° East 533 613 36,000  Level FlightAware Transoceanic
12:58AM 55.7912 -46.6193 69° East 533 613 36,000  Level FlightAware Transoceanic
12:59AM 55.8441 -46.3727 69° East 533 613 36,000  Level FlightAware Transoceanic
01:00AM 55.8965 -46.1254 69° East 533 613 36,000  Level FlightAware Transoceanic
01:01AM 55.9484 -45.8775 70° East 533 613 36,000  Level FlightAware Transoceanic
01:02AM 55.9998 -45.6289 70° East 533 613 36,000  Level FlightAware Transoceanic
01:03AM 56.0507 -45.3796 70° East 533 613 36,000  Level FlightAware Transoceanic
01:03AM 56.0167 -45.4500 71° East 540 621 36,000  Level Gander Center
01:04AM 56.1011 -45.1297 70° East 533 613 36,000  Level FlightAware Transoceanic
01:04AM 56.0667 -45.1833 71° East 540 621 36,000  Level Gander Center
01:05AM 56.1510 -44.8792 70° East 533 613 36,000  Level FlightAware Transoceanic
01:05AM 56.1167 -44.9500 69° East 530 610 36,000  Level Gander Center
01:06AM 56.2004 -44.6279 71° East 533 613 36,000  Level FlightAware Transoceanic
01:06AM 56.1500 -44.6833 77° East 540 621 36,000  Level Gander Center
01:07AM 56.2493 -44.3761 71° East 533 613 36,000  Level FlightAware Transoceanic
01:07AM 56.2167 -44.4500 63° Northeast 540 621 36,000  Level Gander Center
01:08AM 56.2977 -44.1236 71° East 533 613 36,000  Level FlightAware Transoceanic
01:08AM 56.2500 -44.1833 77° East 540 621 36,000  Level Gander Center
01:09AM 56.3000 -43.9167 71° East 540 621 36,000  Level Gander Center
01:10AM 56.3500 -43.6667 70° East 540 621 36,000  Level Gander Center
01:11AM 56.4000 -43.4000 71° East 540 621 36,000  Level Gander Center
01:12AM 56.4500 -43.1667 69° East 540 621 36,000  Level Gander Center
01:13AM 56.4833 -42.9000 77° East 540 621 36,000  Level Gander Center
01:14AM 56.5333 -42.6333 71° East 540 621 36,000  Level Gander Center
01:15AM 56.5833 -42.3833 70° East 540 621 36,000  Level Gander Center
01:16AM 56.6333 -42.1167 71° East 540 621 36,000  Level Gander Center
01:17AM 56.6667 -41.8667 76° East 540 621 36,000  Level Gander Center
01:18AM 56.7167 -41.6000 71° East 530 610 36,000  Level Gander Center
01:19AM 56.7500 -41.3667 75° East 530 610 36,000  Level Gander Center
01:20AM 56.7833 -41.0833 78° East 530 610 36,000  Level Gander Center
01:21AM 56.8333 -40.8500 69° East 530 610 36,000  Level Gander Center
01:22AM 56.8833 -40.5667 72° East 530 610 36,000  Level Gander Center
01:23AM 56.9167 -40.3167 76° East 530 610 36,000  Level Gander Center
01:24AM 56.9500 -40.0500 77° East 540 621 36,000  Level Gander Center
01:25AM 56.9833 -39.7833 77° East 540 621 36,000  Level Gander Center
01:26AM 57.0000 -39.5167 83° East 540 621 36,000  Level Gander Center
01:27AM 57.0000 -40.0000 86° East 529 609 36,000  Level ETMS Enhanced Traffic Management System
01:28AM 57.0167 -38.9667 86° East 540 621 36,000  Level Gander Center
01:29AM 57.0167 -38.7167 90° East 540 621 36,000  Level Gander Center
01:30AM 57.0333 -38.4500 83° East 540 621 36,000  Level Gander Center
01:31AM 57.0500 -38.1500 84° East 540 621 36,000  Level Gander Center
01:32AM 57.0500 -37.9000 90° East 540 621 36,000  Level Gander Center
01:33AM 57.0500 -37.6167 90° East 540 621 36,000  Level Gander Center
01:34AM 57.0667 -37.3500 83° East 540 621 36,000  Level Gander Center
01:35AM 57.0667 -37.0833 90° East 550 633 36,000  Level Gander Center
01:37AM 57.0738 -36.6309 88° East  Level FlightAware Approximate
01:44AM 57.0851 -34.8536 89° East  Level FlightAware Approximate
01:45AM 57.0846 -34.5997 90° East  Level FlightAware Approximate
01:46AM 57.0835 -34.3458 90° East  Level FlightAware Approximate
01:47AM 57.0819 -34.0919 91° East  Level FlightAware Approximate
01:48AM 57.0798 -33.8380 91° East  Level FlightAware Approximate
01:49AM 57.0771 -33.5841 91° East  Level FlightAware Approximate
01:50AM 57.0740 -33.3303 91° East  Level FlightAware Approximate
01:51AM 57.0704 -33.0765 91° East  Level FlightAware Approximate
01:52AM 57.0663 -32.8228 91° East  Level FlightAware Approximate
01:53AM 57.0630 -32.5691 91° East  Level FlightAware Approximate
01:54AM 57.0591 -32.3154 92° East  Level FlightAware Approximate
01:55AM 57.0547 -32.0618 92° East  Level FlightAware Approximate
01:56AM 57.0498 -31.8083 92° East  Level FlightAware Approximate
01:57AM 57.0444 -31.5548 92° East  Level FlightAware Approximate
01:58AM 57.0385 -31.3014 92° East  Level FlightAware Approximate
01:59AM 57.0321 -31.0481 93° East  Level FlightAware Approximate
02:00AM 57.0251 -30.7948 93° East  Level FlightAware Approximate
02:01AM 57.0177 -30.5417 93° East  Level FlightAware Approximate
02:02AM 57.0097 -30.2887 93° East  Level FlightAware Approximate
02:03AM 57.0012 -30.0358 93° East  Level FlightAware Approximate
02:03AM 57.0000 -30.0000 105° East 561 646 36,000  Level ETMS Enhanced Traffic Management System
02:04AM 56.9678 -29.7907 106° East  Level FlightAware Approximate
02:05AM 56.9300 -29.5474 106° East  Level FlightAware Approximate
02:06AM 56.8916 -29.3046 106° East  Level FlightAware Approximate
02:07AM 56.8528 -29.0623 106° East  Level FlightAware Approximate
02:08AM 56.8135 -28.8206 106° East  Level FlightAware Approximate
02:09AM 56.6473 -27.8105 107° East 561 646 36,000  Level FlightAware Transoceanic
02:10AM 56.6006 -27.5398 108° East 561 646 36,000  Level FlightAware Transoceanic
02:11AM 56.5532 -27.2697 108° East 561 646 36,000  Level FlightAware Transoceanic
02:12AM 56.5053 -27.0003 108° East 561 646 36,000  Level FlightAware Transoceanic
02:13AM 56.4568 -26.7316 108° East 561 646 36,000  Level FlightAware Transoceanic
02:14AM 56.4077 -26.4636 108° East 561 646 36,000  Level FlightAware Transoceanic
02:15AM 56.3580 -26.1963 109° East 561 646 36,000  Level FlightAware Transoceanic
02:16AM 56.3078 -25.9297 109° East 561 646 36,000  Level FlightAware Transoceanic
02:17AM 56.2570 -25.6637 109° East 561 646 36,000  Level FlightAware Transoceanic
02:18AM 56.2056 -25.3986 109° East 561 646 36,000  Level FlightAware Transoceanic
02:19AM 56.1536 -25.1341 110° East 561 646 36,000  Level FlightAware Transoceanic
02:20AM 56.1011 -24.8703 110° East 561 646 36,000  Level FlightAware Transoceanic
02:21AM 56.0481 -24.6072 110° East 561 646 36,000  Level FlightAware Transoceanic
02:22AM 55.9944 -24.3449 110° East 561 646 36,000  Level FlightAware Transoceanic
02:23AM 55.9403 -24.0833 110° East 561 646 36,000  Level FlightAware Transoceanic
02:24AM 55.8855 -23.8225 111° Southeast 561 646 36,000  Level FlightAware Transoceanic
02:25AM 55.8302 -23.5623 111° Southeast 561 646 36,000  Level FlightAware Transoceanic
02:26AM 55.7744 -23.3029 111° Southeast 561 646 36,000  Level FlightAware Transoceanic
02:27AM 55.7180 -23.0443 111° Southeast 561 646 36,000  Level FlightAware Transoceanic
02:28AM 55.6611 -22.7864 111° Southeast 561 646 36,000  Level FlightAware Transoceanic
02:29AM 55.6036 -22.5293 112° Southeast 561 646 36,000  Level FlightAware Transoceanic
02:30AM 55.5456 -22.2729 112° Southeast 561 646 36,000  Level FlightAware Transoceanic
02:31AM 55.4871 -22.0173 112° Southeast 561 646 36,000  Level FlightAware Transoceanic
02:32AM 55.4281 -21.7624 112° Southeast 561 646 36,000  Level FlightAware Transoceanic
02:33AM 55.3685 -21.5084 113° Southeast 561 646 36,000  Level FlightAware Transoceanic
02:34AM 55.3083 -21.2550 113° Southeast 561 646 36,000  Level FlightAware Transoceanic
02:35AM 55.2477 -21.0025 113° Southeast 561 646 36,000  Level FlightAware Transoceanic
02:36AM 55.1866 -20.7507 113° Southeast 561 646 36,000  Level FlightAware Transoceanic
02:37AM 55.1249 -20.4997 113° Southeast 561 646 36,000  Level FlightAware Transoceanic
02:38AM 55.0627 -20.2495 114° Southeast 561 646 36,000  Level FlightAware Transoceanic
02:39AM 55.0073 -20.0289 114° Southeast  Level FlightAware Approximate
02:40AM 54.9515 -19.8090 114° Southeast  Level FlightAware Approximate
02:41AM 54.9787 -19.8266 102° East  Level FlightAware Approximate
02:42AM 54.9494 -19.5917 102° East  Level FlightAware Approximate
02:43AM 54.9197 -19.3572 102° East  Level FlightAware Approximate
02:44AM 54.8895 -19.1230 103° East  Level FlightAware Approximate
02:45AM 54.8588 -18.8891 103° East  Level FlightAware Approximate
02:46AM 54.8278 -18.6556 103° East  Level FlightAware Approximate
02:47AM 54.7962 -18.4225 103° East  Level FlightAware Approximate
02:48AM 54.7643 -18.1898 103° East  Level FlightAware Approximate
02:49AM 54.7318 -17.9574 103° East  Level FlightAware Approximate
02:50AM 54.6990 -17.7254 104° East  Level FlightAware Approximate
02:51AM 54.6656 -17.4938 104° East  Level FlightAware Approximate
02:52AM 54.6319 -17.2625 104° East  Level FlightAware Approximate
02:53AM 54.5977 -17.0317 104° East  Level FlightAware Approximate
02:54AM 54.5631 -16.8012 104° East  Level FlightAware Approximate
02:55AM 54.5280 -16.5711 105° East  Level FlightAware Approximate
02:56AM 54.4925 -16.3414 105° East  Level FlightAware Approximate
02:57AM 54.4566 -16.1121 105° East  Level FlightAware Approximate
02:58AM 54.4202 -15.8833 105° East  Level FlightAware Approximate
02:59AM 54.3834 -15.6548 105° East  Level FlightAware Approximate
03:00AM 54.3462 -15.4267 106° East  Level FlightAware Approximate
03:01AM 54.3085 -15.1991 106° East  Level FlightAware Approximate
03:02AM 54.2704 -14.9719 106° East  Level FlightAware Approximate
03:03AM 54.2319 -14.7451 106° East  Level FlightAware Approximate
03:04AM 54.1930 -14.5187 106° East  Level FlightAware Approximate
03:05AM 54.1536 -14.2927 106° East  Level FlightAware Approximate
03:05AM 53.9300 -14.2500 105° East 36,000  Level FlightAware
03:06AM 54.1142 -14.0671 105° East  Level FlightAware Approximate
03:06AM 53.9060 -14.0820 104° East 490 564 36,000  Level FlightAware
03:06AM 53.8800 -13.9210 105° East 497 572 36,000  Level FlightAware
03:07AM 53.8530 -13.7630 106° East 498 573 36,000  Level FlightAware
03:08AM 53.8250 -13.5980 106° East 499 574 36,000  Level FlightAware
03:09AM 53.7940 -13.4160 106° East 502 578 36,000  Level FlightAware
03:11AM 53.7455 -13.0078 101° East  Level Estimated
03:12AM 53.7178 -12.7793 102° East  Level Estimated
03:12AM 53.6710 -12.7370 102° East 478 550 36,000  Level FlightAware
03:14AM 53.6238 -12.3493 101° East  Level Estimated
03:15AM 53.5955 -12.1217 102° East  Level Estimated
03:16AM 53.5667 -11.8944 102° East  Level Estimated
03:17AM 53.5376 -11.6674 102° East  Level Estimated
03:17AM 53.4820 -11.7070 102° East 489 563 36,000  Level FlightAware
03:19AM 53.4262 -11.2650 102° East  Level Estimated
03:20AM 53.3969 -11.0387 102° East  Level Estimated
03:21AM 53.3672 -10.8128 102° East  Level Estimated
03:21AM 53.2890 -10.7030 102° East 483 556 36,000  Level FlightAware
03:24AM 53.2221 -10.1884 102° East  Level Estimated
03:25AM 53.1921 -9.9635 102° East  Level Estimated
03:26AM 53.1616 -9.7389 103° East  Level Estimated
03:26AM 53.0790 -9.6580 103° East 496 571 36,000  Level FlightAware
03:29AM 53.0062 -9.1089 102° East  Level Estimated
03:29AM 52.9354 -8.9849 102° East 474 545 34,500  Level FlightAware UK
03:29AM 52.9211 -8.9209 110° East 474 545 34,500  Level FlightAware UK
03:30AM 52.9064 -8.8564 111° Southeast 476 548 34,500  Level FlightAware UK
03:30AM 52.8920 -8.7926 111° Southeast 486 559 34,500  Level FlightAware UK
03:30AM 52.8776 -8.7289 110° East 482 555 34,500 2,880 Level FlightAware UK
03:30AM 52.8730 -8.7080 110° East 483 556 36,000  Climbing FlightAware
03:31AM 52.8543 -8.6239 110° East 468 539 34,500 -2,580 Descending FlightAware UK
03:31AM 52.8416 -8.5638 109° East 468 539 34,500 3,180 Level FlightAware UK
03:31AM 52.8390 -8.5530 109° East 480 552 36,000  Climbing FlightAware
03:32AM 52.8194 -8.4599 109° East 470 541 34,500  Descending FlightAware UK
03:32AM 52.8130 -8.4310 109° East 482 555 36,000  Climbing FlightAware
03:32AM 52.8061 -8.3969 109° East 474 545 34,500 -6,000 Descending FlightAware UK
03:32AM 52.7972 -8.3551 109° East 478 550 34,500  Level FlightAware UK
03:32AM 52.7838 -8.2927 110° East 478 550 34,500  Level FlightAware UK
03:33AM 52.7701 -8.2316 110° East 472 543 34,500  Level FlightAware UK
03:33AM 52.7566 -8.1704 110° East 472 543 34,500  Level FlightAware UK
03:33AM 52.7432 -8.1089 110° East 470 541 34,500  Level FlightAware UK
03:34AM 52.7297 -8.0477 110° East 470 541 34,500  Level FlightAware UK
03:34AM 52.7160 -7.9868 110° East 476 548 34,500  Level FlightAware UK
03:34AM 52.7022 -7.9261 110° East 474 545 34,500  Level FlightAware UK
03:34AM 52.6884 -7.8655 111° Southeast 472 543 34,500  Level FlightAware UK
03:35AM 52.6745 -7.8050 111° Southeast 474 545 34,500  Level FlightAware UK
03:35AM 52.6605 -7.7446 111° Southeast 474 545 34,500  Level FlightAware UK
03:35AM 52.6466 -7.6841 111° Southeast 474 545 34,500  Level FlightAware UK
03:36AM 52.6328 -7.6236 111° Southeast 472 543 34,500  Level FlightAware UK
03:36AM 52.6189 -7.5633 111° Southeast 472 543 34,500 4,680 Level FlightAware UK
03:36AM 52.6240 -7.5870 111° Southeast 468 539 36,000  Climbing FlightAware
03:36AM 52.6049 -7.5030 111° Southeast 472 543 34,500 -2,580 Descending FlightAware UK
03:37AM 52.5909 -7.4427 111° Southeast 472 543 34,500  Level FlightAware UK
03:37AM 52.5769 -7.3826 111° Southeast 472 543 34,500  Level FlightAware UK
03:37AM 52.5629 -7.3225 111° Southeast 474 545 34,500  Level FlightAware UK
03:37AM 52.5488 -7.2624 111° Southeast 472 543 34,500 -360 Level FlightAware UK
03:38AM 52.5346 -7.2024 111° Southeast 468 539 34,300 -1,140 Descending FlightAware UK
03:38AM 52.5203 -7.1416 111° Southeast 472 543 33,800 -1,320 Descending FlightAware UK
03:38AM 52.5059 -7.0812 111° Southeast 472 543 33,500 -720 Descending FlightAware UK
03:39AM 52.4913 -7.0203 112° Southeast 474 545 33,400 -180 Descending FlightAware UK
03:39AM 52.4768 -6.9591 111° Southeast 478 550 33,400 120 Level FlightAware UK
03:39AM 52.4622 -6.8981 111° Southeast 478 550 33,500 2,700 Climbing FlightAware UK
03:40AM 52.4490 -6.8450 111° Southeast 478 550 35,000  Climbing FlightAware
03:40AM 52.4327 -6.7767 111° Southeast 478 550 33,500 -2,460 Descending FlightAware UK
03:40AM 52.4180 -6.7161 112° Southeast 476 548 33,500 4,260 Level FlightAware UK
03:40AM 52.4180 -6.7170 112° Southeast 479 551 35,000  Climbing FlightAware
03:40AM 52.4032 -6.6555 112° Southeast 480 552 33,500 -2,760 Descending FlightAware UK
03:41AM 52.3884 -6.5949 112° Southeast 474 545 33,500 3,000 Level FlightAware UK
03:41AM 52.3790 -6.5590 112° Southeast 480 552 35,000  Climbing FlightAware
03:41AM 52.3636 -6.4939 112° Southeast 482 555 33,500 -2,520 Descending FlightAware UK
03:42AM 52.3486 -6.4333 112° Southeast 478 550 33,500 4,080 Level FlightAware UK
03:42AM 52.3470 -6.4310 112° Southeast 481 554 35,000  Climbing FlightAware
03:42AM 52.3285 -6.3525 112° Southeast 478 550 33,500 -2,400 Descending FlightAware UK
03:42AM 52.3135 -6.2917 112° Southeast 482 555 33,500 3,600 Level FlightAware UK
03:42AM 52.3090 -6.2760 112° Southeast 481 554 35,000  Climbing FlightAware
03:43AM 52.2934 -6.2109 112° Southeast 478 550 33,500 -2,580 Descending FlightAware UK
03:43AM 52.2784 -6.1502 112° Southeast 482 555 33,500 3,900 Level FlightAware UK
03:43AM 52.2760 -6.1410 112° Southeast 481 554 35,000  Climbing FlightAware
03:43AM 52.2585 -6.0693 112° Southeast 482 555 33,500 -2,460 Descending FlightAware UK
03:44AM 52.2436 -6.0086 112° Southeast 478 550 33,500 4,260 Level FlightAware UK
03:44AM 52.2430 -6.0060 112° Southeast 481 554 35,000  Climbing FlightAware
03:44AM 52.2311 -5.9460 112° Southeast 476 548 33,500 -2,760 Descending FlightAware UK
03:44AM 52.2184 -5.8849 109° East 470 541 33,500 3,000 Level FlightAware UK
03:44AM 52.2120 -5.8560 109° East 469 540 35,000  Climbing FlightAware
03:45AM 52.1969 -5.7852 109° East 460 529 33,500 -2,520 Descending FlightAware UK
03:45AM 52.1841 -5.7266 110° East 452 520 33,500 4,080 Level FlightAware UK
03:45AM 52.1830 -5.7220 110° East 458 527 35,000  Climbing FlightAware
03:45AM 52.1671 -5.6492 110° East 452 520 33,500  Descending FlightAware UK
03:46AM 52.1540 -5.5900 110° East 452 520 35,000  Climbing FlightAware
03:46AM 52.1329 -5.4957 110° East 446 513 33,500  Descending FlightAware UK
03:47AM 52.1230 -5.4530 110° East 449 517 35,000  Climbing FlightAware
03:47AM 52.1072 -5.3813 110° East 442 509 33,500  Descending FlightAware UK
03:47AM 52.0940 -5.3230 110° East 445 512 35,000  Climbing FlightAware
03:47AM 52.0815 -5.2677 110° East 442 509 33,500  Descending FlightAware UK
03:48AM 52.0620 -5.1810 110° East 446 513 35,000  Climbing FlightAware
03:48AM 52.0474 -5.1169 110° East 440 506 33,500 -2,520 Descending FlightAware UK
03:49AM 52.0344 -5.0599 110° East 438 504 33,500 4,080 Level FlightAware UK
03:49AM 52.0340 -5.0590 110° East 445 512 35,000  Climbing FlightAware
03:49AM 52.0173 -4.9848 110° East 442 509 33,500 -2,400 Descending FlightAware UK
03:49AM 52.0045 -4.9284 110° East 440 506 33,500 3,600 Level FlightAware UK
03:49AM 52.0000 -4.9120 110° East 445 512 35,000  Climbing FlightAware
03:50AM 51.9740 -4.7973 110° East 438 504 33,500  Descending FlightAware UK
03:50AM 51.9710 -4.7910 110° East 445 512 35,000 -1,020 Climbing FlightAware
03:50AM 51.9479 -4.7063 110° East 438 504 33,000 -1,080 Descending FlightAware UK
03:51AM 51.9370 -4.6700 110° East 442 509 34,300 -1,200 Climbing FlightAware
03:51AM 51.9224 -4.6160 110° East 432 497 32,400 -1,080 Descending FlightAware UK
03:51AM 51.8990 -4.5350 110° East 433 498 33,500 -1,020 Climbing FlightAware
03:52AM 51.8821 -4.4744 110° East 424 488 31,600 -780 Descending FlightAware UK
03:52AM 51.8660 -4.4190 110° East 424 488 33,000 -120 Climbing FlightAware
03:53AM 51.8333 -4.3014 110° East 418 481 31,500  Descending FlightAware UK
03:53AM 51.8300 -4.2900 110° East 424 488 33,000  Climbing FlightAware
03:53AM 51.8138 -4.2319 110° East 422 486 31,500  Descending FlightAware UK
03:54AM 51.7980 -4.1760 110° East 431 496 33,000  Climbing FlightAware
03:54AM 51.7800 -4.1084 110° East 424 488 31,500 -2,460 Descending FlightAware UK
03:54AM 51.7655 -4.0549 113° Southeast 426 490 31,500 3,420 Level FlightAware UK
03:54AM 51.7600 -4.0370 113° Southeast 433 498 33,000  Climbing FlightAware
03:55AM 51.7409 -3.9660 113° Southeast 428 493 31,500  Descending FlightAware UK
03:55AM 51.7280 -3.9210 113° Southeast 436 502 33,000 -240 Climbing FlightAware
03:56AM 51.6967 -3.8051 113° Southeast 426 490 31,300 -180 Descending FlightAware UK
03:56AM 51.6960 -3.8030 113° Southeast 430 495 32,900 960 Climbing FlightAware
03:56AM 51.6610 -3.6750 114° Southeast 421 484 32,100 -1,200 Descending FlightAware
03:56AM 51.6549 -3.6520 113° Southeast 420 483 31,900 -5,520 Descending FlightAware ADS-B
03:57AM 51.6405 -3.5976 113° Southeast 414 476 30,000 -900 Descending FlightAware UK
03:57AM 51.6300 -3.5610 113° Southeast 413 475 31,400 2,040 Climbing FlightAware
03:57AM 51.6165 -3.5109 113° Southeast 419 482 31,100 -4,140 Descending FlightAware ADS-B
03:58AM 51.6042 -3.4620 113° Southeast 406 467 29,200 -1,080 Descending FlightAware UK
03:58AM 51.5925 -3.4160 113° Southeast 405 466 30,500 -1,020 Climbing FlightAware ADS-B
03:58AM 51.5781 -3.3450 113° Southeast 396 456 28,500 -1,020 Descending FlightAware UK
03:58AM 51.5740 -3.3200 113° Southeast 398 458 29,900 -1,200 Climbing FlightAware
03:59AM 51.5660 -3.2586 113° Southeast 394 453 27,900 -3,780 Descending FlightAware UK
03:59AM 51.5587 -3.2074 103° East 394 453 27,600 3,420 Descending FlightAware UK
03:59AM 51.5580 -3.2060 103° East 390 449 29,100 -1,260 Climbing FlightAware
03:59AM 51.5488 -3.1399 103° East 384 442 27,100 -1,200 Descending FlightAware UK
04:00AM 51.5420 -3.0970 103° East 386 444 28,300 1,200 Climbing FlightAware
04:00AM 51.5319 -3.0303 104° East 400 460 27,900 -3,420 Descending FlightAware ADS-B
04:00AM 51.5238 -2.9744 104° East 376 433 26,000 -1,200 Descending FlightAware UK
04:01AM 51.5168 -2.9324 104° East 379 436 27,200 -1,380 Climbing FlightAware ADS-B
04:01AM 51.5080 -2.8772 104° East 366 421 25,200 -1,320 Descending FlightAware UK
04:01AM 51.5024 -2.8469 104° East 373 429 26,500 -1,200 Climbing FlightAware ADS-B
04:02AM 51.4948 -2.7981 104° East 362 417 24,600 -1,200 Descending FlightAware UK
04:02AM 51.4895 -2.7641 104° East 372 428 25,900 -1,200 Climbing FlightAware ADS-B
04:02AM 51.4796 -2.7017 104° East 366 421 23,900 -1,200 Descending FlightAware UK
04:02AM 51.4766 -2.6849 104° East 366 421 25,300 -1,200 Climbing FlightAware ADS-B
04:03AM 51.4662 -2.6226 104° East 354 407 23,300 -1,140 Descending FlightAware UK
04:03AM 51.4617 -2.5990 104° East 365 420 24,700 1,020 Climbing FlightAware ADS-B
04:03AM 51.4471 -2.5187 106° East 364 419 24,000 -1,500 Descending FlightAware ADS-B
04:04AM 51.4423 -2.4821 102° East 361 415 23,600 -4,860 Descending FlightAware ADS-B
04:04AM 51.4383 -2.4354 102° East 346 398 21,500 -1,860 Descending FlightAware UK
04:04AM 51.4362 -2.3949 102° East 358 412 22,600 240 Climbing FlightAware ADS-B
04:05AM 51.4309 -2.3163 96° East 356 410 21,700 -3,600 Descending FlightAware ADS-B
04:05AM 51.4272 -2.2620 96° East 338 389 19,600 -1,740 Descending FlightAware UK
04:05AM 51.4249 -2.2330 96° East 352 405 20,800 -1,680 Climbing FlightAware ADS-B
04:06AM 51.4205 -2.1683 96° East 336 387 18,600 -1,500 Descending FlightAware UK
04:06AM 51.4190 -2.1531 96° East 348 400 20,000 720 Climbing FlightAware ADS-B
04:06AM 51.4128 -2.0667 97° East 342 394 19,100 -3,480 Descending FlightAware ADS-B
04:07AM 51.4090 -2.0164 97° East 326 375 17,000 -1,560 Descending FlightAware UK
04:07AM 51.4068 -1.9892 97° East 339 390 18,300 -1,620 Climbing FlightAware ADS-B
04:07AM 51.4029 -1.9418 97° East 322 371 16,200 -1,620 Descending FlightAware UK
04:07AM 51.4003 -1.9153 97° East 335 386 17,500 720 Climbing FlightAware ADS-B
04:08AM 51.3940 -1.8445 98° East 330 380 16,700 -1,620 Descending FlightAware ADS-B
04:08AM 51.3875 -1.7698 98° East 327 376 15,900 -1,380 Descending FlightAware ADS-B
04:09AM 51.3810 -1.6966 98° East 319 367 15,300 -1,320 Descending FlightAware ADS-B
04:10AM 51.3722 -1.5997 98° East 312 359 14,300 -2,940 Descending FlightAware ADS-B
04:10AM 51.3684 -1.5583 98° East 296 341 12,400 -960 Descending FlightAware UK
04:10AM 51.3642 -1.5260 98° East 301 346 13,800 -720 Climbing FlightAware ADS-B
04:10AM 51.3578 -1.4809 98° East 278 320 12,000 -780 Descending FlightAware UK
04:11AM 51.3546 -1.4584 98° East 286 329 13,400 -840 Climbing FlightAware ADS-B
04:11AM 51.3489 -1.4192 98° East 266 306 11,600 -840 Descending FlightAware UK
04:11AM 51.3458 -1.3975 98° East 280 322 13,000 1,560 Climbing FlightAware ADS-B
04:12AM 51.3372 -1.3373 103° East 278 320 12,700 -720 Descending FlightAware ADS-B
04:12AM 51.3284 -1.2770 103° East 278 320 12,300 -780 Descending FlightAware ADS-B
04:13AM 51.3204 -1.2214 103° East 276 318 12,000 -660 Descending FlightAware ADS-B
04:13AM 51.3151 -1.1858 103° East 275 316 11,800 -660 Descending FlightAware ADS-B
04:13AM 51.3126 -1.1636 100° East 277 319 11,700 -720 Descending FlightAware ADS-B
04:14AM 51.3107 -1.1000 93° East 277 319 11,300 -2,580 Descending FlightAware ADS-B
04:14AM 51.3099 -1.0558 93° East 258 297 9,500 -600 Descending FlightAware UK
04:14AM 51.3099 -1.0389 93° East 274 315 11,000  Climbing FlightAware ADS-B
04:14AM 51.3096 -1.0071 93° East 256 295 9,500  Descending FlightAware UK
04:15AM 51.3094 -0.9785 93° East 273 314 11,000  Climbing FlightAware ADS-B
04:15AM 51.3091 -0.9468 93° East 256 295 9,500  Descending FlightAware UK
04:15AM 51.3088 -0.9155 93° East 276 318 11,000 1,860 Climbing FlightAware ADS-B
04:16AM 51.3082 -0.8521 91° East 278 320 11,000  Level FlightAware ADS-B
04:16AM 51.3076 -0.8033 91° East 275 316 11,000  Level FlightAware ADS-B
04:17AM 51.3072 -0.7406 91° East 273 314 11,000  Level FlightAware ADS-B
04:17AM 51.3063 -0.6758 91° East 274 315 11,000  Level FlightAware ADS-B
04:18AM 51.3055 -0.6131 91° East 274 315 11,000  Level FlightAware ADS-B
04:18AM 51.3046 -0.5521 91° East 276 318 11,000  Level FlightAware ADS-B
04:19AM 51.3042 -0.4910 91° East 276 318 11,000  Level FlightAware ADS-B
04:19AM 51.3031 -0.4308 92° East 269 310 11,000  Level FlightAware ADS-B
04:19AM 51.3027 -0.4228 95° East 268 308 11,000  Level FlightAware ADS-B
04:19AM 51.3018 -0.4150 100° East 266 306 11,000  Level FlightAware ADS-B
04:19AM 51.3003 -0.4075 108° East 264 304 11,000  Level FlightAware ADS-B
04:20AM 51.2929 -0.3744 110° East 267 307 11,000  Level FlightAware ADS-B
04:20AM 51.2859 -0.3346 106° East 268 308 11,000  Level FlightAware ADS-B
04:20AM 51.2818 -0.3056 103° East 268 308 11,000  Level FlightAware ADS-B
04:20AM 51.2800 -0.2982 111° Southeast 264 304 11,000  Level FlightAware ADS-B
04:20AM 51.2769 -0.2896 120° Southeast 257 296 11,000  Level FlightAware ADS-B
04:20AM 51.2712 -0.2801 134° Southeast 248 285 11,000  Level FlightAware ADS-B
04:21AM 51.2609 -0.2722 154° Southeast 232 267 11,000  Level FlightAware ADS-B
04:21AM 51.2563 -0.2711 172° South 226 260 11,000  Level FlightAware ADS-B
04:21AM 51.2509 -0.2721 186° South 221 254 11,000  Level FlightAware ADS-B
04:21AM 51.2453 -0.2756 202° Southwest 217 250 11,000  Level FlightAware ADS-B
04:21AM 51.2390 -0.2837 219° Southwest 218 251 11,000  Level FlightAware ADS-B
04:21AM 51.2339 -0.2974 239° Southwest 223 257 11,000  Level FlightAware ADS-B
04:21AM 51.2323 -0.3055 252° West 227 261 11,000  Level FlightAware ADS-B
04:21AM 51.2319 -0.3123 265° West 230 265 11,000  Level FlightAware ADS-B
04:21AM 51.2325 -0.3226 275° West 236 272 11,000  Level FlightAware ADS-B
04:21AM 51.2336 -0.3295 284° West 242 278 11,000  Level FlightAware ADS-B
04:22AM 51.2393 -0.3498 294° West 252 290 11,000  Level FlightAware ADS-B
04:22AM 51.2429 -0.3597 300° West 254 292 11,000  Level FlightAware ADS-B
04:22AM 51.2469 -0.3690 304° West 254 292 11,000  Level FlightAware ADS-B
04:22AM 51.2509 -0.3777 306° West 255 293 11,000  Level FlightAware ADS-B
04:22AM 51.2668 -0.4013 317° Northwest 258 297 11,000  Level FlightAware ADS-B
04:23AM 51.2955 -0.4386 321° Northwest 261 300 11,000  Level FlightAware ADS-B
04:23AM 51.3133 -0.4589 324° Northwest 262 302 11,000  Level FlightAware ADS-B
04:23AM 51.3225 -0.4651 337° Northwest 268 308 11,000  Level FlightAware ADS-B
04:23AM 51.3311 -0.4671 352° North 273 314 11,000  Level FlightAware ADS-B
04:23AM 51.3358 -0.4669 North 274 315 11,000  Level FlightAware ADS-B
04:23AM 51.3412 -0.4655 10° North 277 319 11,000  Level FlightAware ADS-B
04:24AM 51.3476 -0.4626 16° North 279 321 11,000  Level FlightAware ADS-B
04:24AM 51.3532 -0.4593 20° North 283 326 11,000  Level FlightAware ADS-B
04:24AM 51.3594 -0.4527 34° Northeast 285 328 11,000  Level FlightAware ADS-B
04:24AM 51.3642 -0.4458 42° Northeast 286 329 11,000  Level FlightAware ADS-B
04:24AM 51.3669 -0.4410 48° Northeast 286 329 11,000  Level FlightAware ADS-B
04:24AM 51.3693 -0.4359 53° Northeast 285 328 11,000  Level FlightAware ADS-B
04:24AM 51.3721 -0.4287 58° Northeast 285 328 11,000  Level FlightAware ADS-B
04:24AM 51.3747 -0.4190 67° East 283 326 11,000  Level FlightAware ADS-B
04:24AM 51.3764 -0.4089 75° East 281 323 11,000  Level FlightAware ADS-B
04:24AM 51.3772 -0.3965 84° East 279 321 11,000  Level FlightAware ADS-B
04:24AM 51.3772 -0.3904 90° East 277 319 11,000  Level FlightAware ADS-B
04:24AM 51.3766 -0.3841 99° East 274 315 11,000  Level FlightAware ADS-B
04:24AM 51.3753 -0.3745 102° East 271 312 11,000  Level FlightAware ADS-B
04:25AM 51.3730 -0.3651 111° Southeast 266 306 11,000  Level FlightAware ADS-B
04:25AM 51.3703 -0.3584 123° Southeast 260 299 11,000  Level FlightAware ADS-B
04:25AM 51.3659 -0.3494 128° Southeast 253 291 11,000  Level FlightAware ADS-B
04:25AM 51.3447 -0.3241 143° Southeast 242 278 11,000  Level FlightAware ADS-B
04:26AM 51.3200 -0.2950 144° Southeast 242 278 11,000  Level FlightAware
04:26AM 51.3163 -0.2923 155° Southeast 243 280 11,000  Level FlightAware ADS-B
04:26AM 51.3012 -0.2763 146° Southeast 241 277 11,000  Level FlightAware ADS-B
04:26AM 51.2940 -0.2698 151° Southeast 236 272 11,000  Level FlightAware ADS-B
04:26AM 51.2898 -0.2676 162° South 232 267 11,000  Level FlightAware ADS-B
04:26AM 51.2844 -0.2659 169° South 228 262 11,000  Level FlightAware ADS-B
04:26AM 51.2812 -0.2654 174° South 227 261 11,000  Level FlightAware ADS-B
04:26AM 51.2771 -0.2650 177° South 227 261 11,000  Level FlightAware ADS-B
04:26AM 51.2702 -0.2657 184° South 226 260 11,000 -420 Level FlightAware ADS-B
04:27AM 51.2607 -0.2700 196° South 223 257 10,900 -660 Descending FlightAware ADS-B
04:27AM 51.2522 -0.2771 208° Southwest 219 252 10,800 -420 Descending FlightAware ADS-B
04:27AM 51.2472 -0.2843 222° Southwest 219 252 10,800 -540 Level FlightAware ADS-B
04:27AM 51.2435 -0.2903 226° Southwest 220 253 10,700 -900 Descending FlightAware ADS-B
04:27AM 51.2389 -0.3027 239° Southwest 222 255 10,600 -480 Descending FlightAware ADS-B
04:27AM 51.2370 -0.3104 249° West 225 259 10,600 -540 Level FlightAware ADS-B
04:27AM 51.2350 -0.3219 254° West 229 264 10,500 -600 Descending FlightAware ADS-B
04:27AM 51.2346 -0.3286 265° West 230 265 10,500  Level FlightAware ADS-B
04:27AM 51.2347 -0.3372 271° West 234 269 10,500 -600 Level FlightAware ADS-B
04:27AM 51.2358 -0.3476 280° West 238 274 10,400 -600 Descending FlightAware ADS-B
04:28AM 51.2378 -0.3577 288° West 240 276 10,400 -540 Level FlightAware ADS-B
04:28AM 51.2408 -0.3675 296° West 244 281 10,300 -600 Descending FlightAware ADS-B
04:28AM 51.2439 -0.3753 303° West 248 285 10,300 -720 Level FlightAware ADS-B
04:28AM 51.2473 -0.3810 314° West 251 289 10,200 -600 Descending FlightAware ADS-B
04:28AM 51.2519 -0.3886 314° West 255 293 10,200 -360 Level FlightAware ADS-B
04:28AM 51.2789 -0.4203 324° Northwest 257 296 10,000 -300 Descending FlightAware ADS-B
04:29AM 51.2986 -0.4427 325° Northwest 255 293 10,000 -240 Level FlightAware ADS-B
04:29AM 51.3067 -0.4525 323° Northwest 256 295 9,900 -480 Descending FlightAware ADS-B
04:29AM 51.3121 -0.4578 328° Northwest 255 293 9,900 -720 Level FlightAware ADS-B
04:29AM 51.3162 -0.4617 330° Northwest 257 296 9,800 -780 Descending FlightAware ADS-B
04:29AM 51.3198 -0.4646 333° Northwest 259 298 9,800 -600 Level FlightAware ADS-B
04:29AM 51.3278 -0.4673 348° North 263 303 9,700 -600 Descending FlightAware ADS-B
04:29AM 51.3337 -0.4679 356° North 265 305 9,700  Level FlightAware ADS-B
04:29AM 51.3389 -0.4674 North 266 306 9,700  Level FlightAware ADS-B
04:29AM 51.3438 -0.4660 10° North 269 310 9,700 -780 Level FlightAware ADS-B
04:29AM 51.3479 -0.4638 19° North 272 313 9,600 -900 Descending FlightAware ADS-B
04:30AM 51.3518 -0.4615 20° North 273 314 9,600  Level FlightAware ADS-B
04:30AM 51.3552 -0.4588 26° Northeast 275 316 9,600  Level FlightAware ADS-B
04:30AM 51.3586 -0.4556 31° Northeast 276 318 9,600 -900 Level FlightAware ADS-B
04:30AM 51.3621 -0.4504 43° Northeast 278 320 9,500 -780 Descending FlightAware ADS-B
04:30AM 51.3660 -0.4443 44° Northeast 278 320 9,500  Level FlightAware ADS-B
04:30AM 51.3685 -0.4395 51° Northeast 279 321 9,500 -600 Level FlightAware ADS-B
04:30AM 51.3725 -0.4266 64° Northeast 277 319 9,400 -540 Descending FlightAware ADS-B
04:30AM 51.3743 -0.4167 74° East 275 316 9,400 -780 Level FlightAware ADS-B
04:30AM 51.3749 -0.4107 81° East 273 314 9,300 -900 Descending FlightAware ADS-B
04:30AM 51.3751 -0.4026 88° East 270 311 9,300  Level FlightAware ADS-B
04:30AM 51.3745 -0.3927 96° East 266 306 9,300 -600 Level FlightAware ADS-B
04:30AM 51.3730 -0.3832 104° East 262 302 9,200 -720 Descending FlightAware ADS-B
04:30AM 51.3713 -0.3759 110° East 258 297 9,200  Level FlightAware ADS-B
04:30AM 51.3696 -0.3709 119° Southeast 257 296 9,200 -600 Level FlightAware ADS-B
04:31AM 51.3642 -0.3588 125° Southeast 249 287 9,100 -540 Descending FlightAware ADS-B
04:31AM 51.3604 -0.3536 140° Southeast 244 281 9,100  Level FlightAware ADS-B
04:31AM 51.3574 -0.3490 136° Southeast 241 277 9,100 -480 Level FlightAware ADS-B
04:31AM 51.3495 -0.3392 142° Southeast 241 277 9,000 -300 Descending FlightAware ADS-B
04:31AM 51.3365 -0.3226 141° Southeast 240 276 9,000  Level FlightAware ADS-B
04:31AM 51.3229 -0.3063 143° Southeast 238 274 9,000  Level FlightAware ADS-B
04:32AM 51.3062 -0.2864 143° Southeast 238 274 9,000  Level FlightAware ADS-B
04:32AM 51.2963 -0.2756 146° Southeast 234 269 9,000  Level FlightAware ADS-B
04:32AM 51.2932 -0.2733 156° South 229 264 9,000  Level FlightAware ADS-B
04:32AM 51.2900 -0.2715 160° South 225 259 9,000  Level FlightAware ADS-B
04:32AM 51.2869 -0.2701 165° South 224 258 9,000  Level FlightAware ADS-B
04:32AM 51.2835 -0.2689 168° South 222 255 9,000  Level FlightAware ADS-B
04:32AM 51.2778 -0.2682 176° South 220 253 9,000  Level FlightAware ADS-B
04:32AM 51.2722 -0.2686 182° South 218 251 9,000  Level FlightAware ADS-B
04:32AM 51.2629 -0.2715 191° South 215 247 9,000  Level FlightAware ADS-B
04:32AM 51.2584 -0.2745 202° Southwest 214 246 9,000  Level FlightAware ADS-B
04:33AM 51.2528 -0.2802 213° Southwest 213 245 9,000  Level FlightAware ADS-B
04:33AM 51.2486 -0.2863 222° Southwest 213 245 9,000  Level FlightAware ADS-B
04:33AM 51.2461 -0.2897 220° Southwest 213 245 9,000  Level FlightAware ADS-B
04:33AM 51.2412 -0.3012 236° Southwest 214 246 9,000  Level FlightAware ADS-B
04:33AM 51.2395 -0.3067 244° Southwest 216 249 9,000  Level FlightAware ADS-B
04:33AM 51.2378 -0.3129 246° West 217 250 9,000  Level FlightAware ADS-B
04:33AM 51.2366 -0.3206 256° West 220 253 9,000  Level FlightAware ADS-B
04:33AM 51.2360 -0.3271 262° West 222 255 9,000  Level FlightAware ADS-B
04:33AM 51.2358 -0.3353 268° West 224 258 9,000  Level FlightAware ADS-B
04:33AM 51.2362 -0.3421 275° West 227 261 9,000  Level FlightAware ADS-B
04:33AM 51.2375 -0.3521 282° West 230 265 9,000  Level FlightAware ADS-B
04:33AM 51.2400 -0.3619 292° West 236 272 9,000  Level FlightAware ADS-B
04:34AM 51.2425 -0.3697 297° West 240 276 9,000  Level FlightAware ADS-B
04:34AM 51.2451 -0.3757 305° West 244 281 9,000  Level FlightAware ADS-B
04:34AM 51.2473 -0.3799 310° West 246 283 9,000  Level FlightAware ADS-B
04:34AM 51.2520 -0.3877 314° West 250 288 9,000  Level FlightAware ADS-B
04:34AM 51.2689 -0.4076 324° Northwest 245 282 9,000  Level FlightAware ADS-B
04:34AM 51.2822 -0.4231 324° Northwest 228 262 9,000  Level FlightAware ADS-B
04:35AM 51.2952 -0.4385 324° Northwest 212 244 9,000 240 Level FlightAware ADS-B
04:35AM 51.3005 -0.4449 323° Northwest 208 239 9,100  Climbing FlightAware ADS-B
04:35AM 51.3048 -0.4492 328° Northwest 209 241 9,000 -720 Descending FlightAware ADS-B
04:35AM 51.3080 -0.4520 332° Northwest 211 243 9,000  Level FlightAware ADS-B
04:35AM 51.3147 -0.4545 347° North 216 249 9,000  Level FlightAware ADS-B
04:35AM 51.3177 -0.4547 358° North 217 250 9,000  Level FlightAware ADS-B
04:35AM 51.3218 -0.4546 North 219 252 9,000  Level FlightAware ADS-B
04:35AM 51.3386 -0.4530 North 223 257 9,000  Level FlightAware ADS-B
04:36AM 51.3542 -0.4520 North 223 257 9,000 -420 Level FlightAware ADS-B
04:36AM 51.3699 -0.4511 North 221 254 8,800 -720 Descending FlightAware ADS-B
04:36AM 51.3820 -0.4504 North 219 252 8,700 -360 Descending FlightAware ADS-B
04:36AM 51.3874 -0.4495 North 221 254 8,700 -720 Level FlightAware ADS-B
04:36AM 51.3907 -0.4484 12° North 222 255 8,600 -1,020 Descending FlightAware ADS-B
04:36AM 51.3940 -0.4467 17° North 226 260 8,600  Level FlightAware ADS-B
04:36AM 51.3975 -0.4435 30° Northeast 227 261 8,600  Level FlightAware ADS-B
04:36AM 51.4011 -0.4393 36° Northeast 228 262 8,600 -780 Level FlightAware ADS-B
04:36AM 51.4036 -0.4343 51° Northeast 228 262 8,500 -900 Descending FlightAware ADS-B
04:37AM 51.4058 -0.4302 49° Northeast 228 262 8,500  Level FlightAware ADS-B
04:37AM 51.4081 -0.4209 68° East 227 261 8,500 -600 Level FlightAware ADS-B
04:37AM 51.4091 -0.4144 76° East 225 259 8,400 -900 Descending FlightAware ADS-B
04:37AM 51.4095 -0.4093 83° East 225 259 8,400  Level FlightAware ADS-B
04:37AM 51.4092 -0.4011 93° East 220 253 8,400 -600 Level FlightAware ADS-B
04:37AM 51.4077 -0.3917 104° East 214 246 8,300 -540 Descending FlightAware ADS-B
04:37AM 51.4052 -0.3833 115° Southeast 211 243 8,300 -540 Level FlightAware ADS-B
04:37AM 51.3961 -0.3619 124° Southeast 204 235 8,100 -720 Descending FlightAware ADS-B
04:37AM 51.3913 -0.3503 124° Southeast 205 236 8,000 -480 Descending FlightAware ADS-B
04:38AM 51.3895 -0.3432 112° Southeast 210 242 8,000  Level FlightAware ADS-B
04:38AM 51.3884 -0.3324 99° East 216 249 8,000  Level FlightAware ADS-B
04:38AM 51.3885 -0.3258 89° East 219 252 8,000  Level FlightAware ADS-B
04:38AM 51.3890 -0.3193 83° East 221 254 8,000  Level FlightAware ADS-B
04:38AM 51.3907 -0.2946 84° East 222 255 8,000 -600 Level FlightAware ADS-B
04:38AM 51.3922 -0.2687 85° East 219 252 7,700 -1,380 Descending FlightAware ADS-B
04:39AM 51.3936 -0.2444 85° East 220 253 7,300 -1,380 Descending FlightAware ADS-B
04:39AM 51.3950 -0.2182 85° East 223 257 7,000 -1,080 Descending FlightAware ADS-B
04:39AM 51.3953 -0.2066 88° East 225 259 6,900 -540 Descending FlightAware ADS-B
04:39AM 51.3953 -0.1982 90° East 224 258 6,900 -300 Level FlightAware ADS-B
04:39AM 51.3940 -0.1737 95° East 222 255 6,800 -420 Descending FlightAware ADS-B
04:40AM 51.3929 -0.1476 94° East 219 252 6,700 -420 Descending FlightAware ADS-B
04:40AM 51.3919 -0.1237 94° East 216 249 6,600 -600 Descending FlightAware ADS-B
04:40AM 51.3908 -0.0982 94° East 214 246 6,400 -780 Descending FlightAware ADS-B
04:40AM 51.3896 -0.0713 94° East 214 246 6,200 -600 Descending FlightAware ADS-B
04:41AM 51.3885 -0.0471 94° East 218 251 6,100 -360 Descending FlightAware ADS-B
04:41AM 51.3878 -0.0180 92° East 221 254 6,000 -420 Descending FlightAware ADS-B
04:41AM 51.3940 0.0034 65° Northeast 227 261 5,900 -360 Descending FlightAware ADS-B
04:41AM 51.3976 0.0096 47° Northeast 226 260 5,900 -480 Level FlightAware ADS-B
04:41AM 51.4069 0.0176 28° Northeast 220 253 5,800 -300 Descending FlightAware ADS-B
04:42AM 51.4183 0.0202 North 212 244 5,800 -240 Level FlightAware ADS-B
04:42AM 51.4354 0.0208 North 212 244 5,700 -600 Descending FlightAware ADS-B
04:42AM 51.4395 0.0196 350° North 204 235 5,600 -600 Descending FlightAware ADS-B
04:42AM 51.4447 0.0162 338° Northwest 197 227 5,600 -600 Level FlightAware ADS-B
04:42AM 51.4478 0.0127 325° Northwest 191 220 5,500 -480 Descending FlightAware ADS-B
04:42AM 51.4522 0.0030 306° West 179 206 5,500  Level FlightAware ADS-B
04:42AM 51.4540 -0.0031 295° West 176 203 5,500 -300 Level FlightAware ADS-B
04:43AM 51.4594 -0.0234 293° West 176 203 5,400 -240 Descending FlightAware ADS-B
04:43AM 51.4626 -0.0354 293° West 174 200 5,400 -600 Level FlightAware ADS-B
04:43AM 51.4641 -0.0500 279° West 162 186 5,200 -540 Descending FlightAware ADS-B
04:43AM 51.4646 -0.0640 273° West 153 176 5,200 -240 Level FlightAware ADS-B
04:43AM 51.4656 -0.0806 276° West 148 170 5,100 -420 Descending FlightAware ADS-B
04:44AM 51.4659 -0.0969 272° West 146 168 5,000 -600 Descending FlightAware ADS-B
04:44AM 51.4657 -0.1132 269° West 145 167 4,800 -960 Descending FlightAware ADS-B
04:44AM 51.4654 -0.1318 269° West 148 170 4,500 -900 Descending FlightAware ADS-B
04:45AM 51.4654 -0.1514 270° West 147 169 4,300 -720 Descending FlightAware ADS-B
04:45AM 51.4655 -0.1685 271° West 143 165 4,100 -960 Descending FlightAware ADS-B
04:45AM 51.4655 -0.1854 270° West 142 163 3,800 -960 Descending FlightAware ADS-B
04:45AM 51.4654 -0.2021 269° West 141 162 3,600 -840 Descending FlightAware ADS-B
04:46AM 51.4654 -0.2329 270° West 141 162 3,200 -840 Descending FlightAware ADS-B
04:46AM 51.4654 -0.2583 270° West 139 160 2,900 -2,940 Descending FlightAware ADS-B
04:47AM 51.4653 -0.2783 270° West 168 193 1,100 -3,360 Descending FlightAware UK
04:47AM 51.4653 -0.2976 270° West 168 193 900 3,360 Descending FlightAware UK
04:47AM 51.4650 -0.3000 270° West 143 165 2,400 1,500 Climbing FlightAware
04:47AM 51.4650 -0.3350 270° West 131 151 1,900 -2,640 Descending FlightAware
04:48AM 51.4652 -0.3517 270° West 146 168 200 -480 Descending FlightAware UK
04:48AM 51.4650 -0.3580 270° West 128 147 1,700 3,120 Climbing FlightAware
04:48AM 51.4650 -0.3710 270° West 119 137 1,500 -780 Descending FlightAware
04:49AM 51.4650 -0.3920 270° West 128 147 1,200 -720 Descending FlightAware
04:49AM 51.4650 -0.4150 270° West 126 145 900 -360 Descending FlightAware
04:49AM 51.4650 -0.4360 270° West 126 145 900  Level FlightAware